Time;durP1;ratioP1;P1;durP2;ratioP2;P2;SDS_P1;SDS_P2;PMS_P1;PMS_P2;Temp;Humidity;BMP_temperature;BMP_pressure;BME280_temperature;BME280_humidity;BME280_pressure;Samples;Min_cycle;Max_cycle;Signal;HPM_P1;HPM_P2
2023/01/16 00:01:49;;;;;;;3.13;1.33;;;;;;;3.43;100.00;99590.66;5330592;27;20023;-84
2023/01/16 00:04:21;;;;;;;2.90;1.13;;;;;;;3.40;100.00;99575.91;5310985;27;20020;-82
2023/01/16 00:06:53;;;;;;;3.08;1.33;;;;;;;3.35;100.00;99573.69;5346133;27;20020;-82
2023/01/16 00:09:24;;;;;;;5.50;1.50;;;;;;;3.29;100.00;99560.16;5346118;27;20015;-83
2023/01/16 00:11:55;;;;;;;3.60;2.05;;;;;;;3.20;100.00;99567.03;5328530;27;20024;-83
2023/01/16 00:14:29;;;;;;;5.40;1.58;;;;;;;3.14;100.00;99560.47;5338551;27;20032;-83
2023/01/16 00:17:01;;;;;;;4.18;1.40;;;;;;;3.11;100.00;99567.78;5346116;27;20027;-83
2023/01/16 00:19:32;;;;;;;2.95;1.50;;;;;;;3.03;100.00;99561.34;5346333;27;20035;-83
2023/01/16 00:22:03;;;;;;;4.40;2.13;;;;;;;3.04;100.00;99546.38;5337345;27;21696;-82
2023/01/16 00:24:34;;;;;;;6.93;2.05;;;;;;;2.96;100.00;99548.78;5335752;27;20508;-83
2023/01/16 00:27:06;;;;;;;6.57;2.40;;;;;;;2.97;100.00;99551.31;5339942;27;20055;-83
2023/01/16 00:29:37;;;;;;;7.03;2.80;;;;;;;3.00;100.00;99543.16;5339876;27;20049;-83
2023/01/16 00:32:10;;;;;;;5.18;2.25;;;;;;;3.01;100.00;99544.81;5336979;27;20031;-83
2023/01/16 00:34:41;;;;;;;10.20;2.97;;;;;;;2.96;100.00;99540.88;5341102;27;20070;-83
2023/01/16 00:37:12;;;;;;;10.82;3.38;;;;;;;2.93;100.00;99535.88;5342497;27;20427;-83
2023/01/16 00:39:44;;;;;;;6.80;2.53;;;;;;;2.94;100.00;99532.28;5340512;27;20111;-84
2023/01/16 00:42:15;;;;;;;8.35;3.17;;;;;;;2.98;100.00;99539.81;5345518;27;20062;-83
2023/01/16 00:44:46;;;;;;;10.75;3.38;;;;;;;2.99;100.00;99525.66;5344212;27;20491;-83
2023/01/16 00:47:17;;;;;;;10.73;2.88;;;;;;;3.00;100.00;99531.78;5342194;27;20120;-83
2023/01/16 00:49:49;;;;;;;6.57;2.38;;;;;;;3.00;100.00;99524.72;5343167;27;20094;-83
2023/01/16 00:52:20;;;;;;;17.52;3.97;;;;;;;3.00;100.00;99518.63;5350973;27;20077;-83
2023/01/16 00:54:51;;;;;;;10.85;3.00;;;;;;;2.97;100.00;99516.22;5343902;27;20115;-82
2023/01/16 00:57:23;;;;;;;6.22;2.67;;;;;;;2.89;100.00;99500.22;5345643;27;20108;-82
2023/01/16 00:59:54;;;;;;;6.03;2.55;;;;;;;2.93;100.00;99494.56;5323082;27;20032;-83
2023/01/16 01:02:25;;;;;;;11.98;3.03;;;;;;;2.88;100.00;99501.19;5342681;27;20031;-83
2023/01/16 01:04:56;;;;;;;9.25;2.17;;;;;;;2.88;100.00;99494.13;5324346;27;20020;-83
2023/01/16 01:07:28;;;;;;;7.68;2.38;;;;;;;2.82;100.00;99486.72;5336651;27;23626;-82
2023/01/16 01:09:59;;;;;;;10.73;3.72;;;;;;;2.80;100.00;99480.72;5342532;27;20039;-83
2023/01/16 01:12:30;;;;;;;6.18;2.15;;;;;;;2.78;100.00;99475.59;5337370;27;20150;-83
2023/01/16 01:15:02;;;;;;;9.75;2.35;;;;;;;2.75;100.00;99478.50;5340195;27;20118;-84
2023/01/16 01:17:34;;;;;;;10.20;2.45;;;;;;;2.76;100.00;99466.97;5334916;27;20024;-83
2023/01/16 01:20:06;;;;;;;6.88;2.33;;;;;;;2.72;100.00;99468.22;5341862;27;20031;-83
2023/01/16 01:22:38;;;;;;;11.43;2.42;;;;;;;2.68;100.00;99458.88;5346551;27;20098;-83
2023/01/16 01:25:09;;;;;;;7.45;2.20;;;;;;;2.68;100.00;99461.50;5339159;27;20066;-83
2023/01/16 01:27:40;;;;;;;9.32;1.60;;;;;;;2.63;100.00;99447.91;5338628;27;20080;-83
2023/01/16 01:30:12;;;;;;;6.85;1.70;;;;;;;2.61;100.00;99444.53;5341410;27;20027;-83
2023/01/16 01:32:43;;;;;;;10.43;2.88;;;;;;;2.57;100.00;99441.31;5320055;27;20062;-83
2023/01/16 01:35:17;;;;;;;9.23;2.00;;;;;;;2.55;100.00;99426.63;5339015;27;20098;-83
2023/01/16 01:37:48;;;;;;;9.40;1.80;;;;;;;2.52;100.00;99429.50;5338489;27;20099;-83
2023/01/16 01:40:19;;;;;;;6.22;2.33;;;;;;;2.48;100.00;99423.66;5338527;27;20098;-83
2023/01/16 01:42:54;;;;;;;8.35;1.80;;;;;;;2.45;100.00;99424.75;5333239;27;20469;-82
2023/01/16 01:45:30;;;;;;;9.13;1.90;;;;;;;2.44;100.00;99399.38;5328383;27;20047;-83
2023/01/16 01:48:01;;;;;;;;;;;;;;;2.45;100.00;99390.53;5333991;27;20390;-83
2023/01/16 01:50:50;;;;;;;7.50;1.90;;;;;;;2.40;100.00;99384.81;5338163;27;19920;-83
2023/01/16 01:53:49;;;;;;;9.88;2.30;;;;;;;2.40;100.00;99383.97;5335295;27;20254;-83
2023/01/16 01:56:44;;;;;;;9.02;1.70;;;;;;;2.39;100.00;99382.31;5334993;27;20480;-83
2023/01/16 01:59:26;;;;;;;11.40;2.10;;;;;;;2.41;100.00;99369.84;5330624;27;20570;-82
2023/01/16 02:02:01;;;;;;;8.75;2.25;;;;;;;2.37;100.00;99368.44;5336478;27;20020;-82
2023/01/16 02:04:35;;;;;;;9.27;1.77;;;;;;;2.35;100.00;99359.81;5336277;27;20510;-83
2023/01/16 02:07:09;;;;;;;9.57;1.80;;;;;;;2.33;100.00;99359.09;5334445;27;20118;-83
2023/01/16 02:09:40;;;;;;;7.85;1.70;;;;;;;2.32;100.00;99347.75;5348008;27;20027;-84
2023/01/16 02:12:15;;;;;;;6.88;1.85;;;;;;;2.35;100.00;99342.25;5330234;27;20024;-83
2023/01/16 02:14:48;;;;;;;14.27;2.47;;;;;;;2.43;100.00;99341.59;5326147;27;20028;-83
2023/01/16 02:20:25;;;;;;;9.00;2.13;;;;;;;2.46;100.00;99334.28;5346265;27;20020;-84
2023/01/16 02:23:25;;;;;;;9.60;1.60;;;;;;;2.43;100.00;99318.75;5346257;27;20117;-83
2023/01/16 02:26:09;;;;;;;9.82;1.77;;;;;;;2.44;100.00;99335.38;5319019;27;20044;-83
2023/01/16 02:29:18;;;;;;;6.55;1.55;;;;;;;2.48;100.00;99309.66;5327120;27;20117;-84
2023/01/16 02:32:02;;;;;;;11.02;1.90;;;;;;;2.44;100.00;99301.19;5314683;27;20036;-83
2023/01/16 02:35:05;;;;;;;7.75;1.70;;;;;;;2.41;100.00;99291.72;5341405;27;20469;-83
2023/01/16 02:37:55;;;;;;;9.57;1.60;;;;;;;2.38;100.00;99278.81;5339393;27;20031;-83
2023/01/16 02:40:29;;;;;;;5.22;1.63;;;;;;;2.36;100.00;99277.28;5338915;27;20138;-83
2023/01/16 02:43:25;;;;;;;7.13;1.35;;;;;;;2.30;100.00;99259.38;5343114;27;20139;-83
2023/01/16 02:46:08;;;;;;;4.05;1.40;;;;;;;2.25;100.00;99246.63;5346329;27;20024;-83
2023/01/16 02:49:09;;;;;;;5.47;1.70;;;;;;;2.25;100.00;99242.19;5333069;27;20137;-83
2023/01/16 02:51:54;;;;;;;7.00;1.55;;;;;;;2.24;100.00;99227.38;5326306;27;20052;-83
2023/01/16 02:54:40;;;;;;;6.72;2.05;;;;;;;2.17;100.00;99218.28;5324112;27;20073;-83
2023/01/16 02:57:17;;;;;;;5.63;1.33;;;;;;;2.17;100.00;99210.41;5326281;27;20082;-83
2023/01/16 02:59:49;;;;;;;;;;;;;;;2.19;100.00;99212.91;5345269;27;20107;-83
2023/01/16 03:02:20;;;;;;;9.40;1.67;;;;;;;2.15;100.00;99201.00;5345717;27;20030;-83
2023/01/16 03:04:52;;;;;;;5.20;1.80;;;;;;;2.22;100.00;99197.69;5345635;27;20032;-83
2023/01/16 03:07:55;;;;;;;6.75;2.00;;;;;;;2.24;100.00;99189.69;5345856;27;20031;-83
2023/01/16 03:10:29;;;;;;;8.00;2.42;;;;;;;2.21;100.00;99182.03;5345655;27;20035;-83
2023/01/16 03:13:24;;;;;;;5.93;1.60;;;;;;;2.26;100.00;99170.19;5344886;27;20039;-83
2023/01/16 03:16:13;;;;;;;2.83;1.25;;;;;;;2.27;100.00;99165.75;5324913;28;20032;-82
2023/01/16 03:19:15;;;;;;;10.18;2.22;;;;;;;2.29;100.00;99153.28;5326502;28;20376;-82
2023/01/16 03:22:28;;;;;;;7.95;1.90;;;;;;;2.37;100.00;99152.66;5327320;27;20496;-81
2023/01/16 03:25:04;;;;;;;7.75;2.03;;;;;;;2.34;100.00;99137.94;5352865;27;20092;-81
2023/01/16 03:27:42;;;;;;;14.23;2.78;;;;;;;2.39;100.00;99127.03;5348763;27;20107;-82
2023/01/16 03:30:24;;;;;;;6.97;1.40;;;;;;;2.36;100.00;99120.22;5331713;27;20028;-82
2023/01/16 03:33:07;;;;;;;9.05;1.80;;;;;;;2.37;100.00;99118.44;5325030;28;20032;-82
2023/01/16 03:35:46;;;;;;;5.22;1.52;;;;;;;2.41;100.00;99109.31;5324582;27;20089;-83
2023/01/16 03:38:21;;;;;;;6.32;1.40;;;;;;;2.33;100.00;99099.47;5310564;27;20024;-82
2023/01/16 03:40:56;;;;;;;9.52;2.67;;;;;;;2.32;100.00;99091.69;5339947;27;20024;-82
2023/01/16 03:43:32;;;;;;;6.68;1.58;;;;;;;2.31;100.00;99085.56;5345052;27;20023;-82
2023/01/16 03:46:12;;;;;;;9.48;2.50;;;;;;;2.34;100.00;99081.88;5345208;27;20472;-83
2023/01/16 03:48:52;;;;;;;9.43;1.77;;;;;;;2.36;100.00;99066.78;5345216;27;20486;-83
2023/01/16 03:51:36;;;;;;;7.32;2.20;;;;;;;2.37;100.00;99057.94;5344091;27;20522;-83
2023/01/16 03:54:47;;;;;;;5.65;1.83;;;;;;;2.39;100.00;99043.66;5315340;27;20028;-83
2023/01/16 03:57:26;;;;;;;10.75;1.85;;;;;;;2.43;100.00;99018.72;5333031;27;20062;-83
2023/01/16 03:59:59;;;;;;;6.38;1.55;;;;;;;2.43;100.00;99015.28;5333806;27;20024;-82
2023/01/16 04:02:40;;;;;;;5.85;1.40;;;;;;;2.48;100.00;99014.88;5343785;27;20092;-82
2023/01/16 04:05:18;;;;;;;9.40;2.17;;;;;;;2.57;100.00;99009.63;5340520;27;20099;-83
2023/01/16 04:07:56;;;;;;;7.97;1.58;;;;;;;2.59;100.00;99006.84;5313060;27;20378;-83
2023/01/16 04:10:34;;;;;;;7.18;2.10;;;;;;;2.65;100.00;98990.53;5341219;27;20031;-82
2023/01/16 04:13:10;;;;;;;9.23;2.50;;;;;;;2.65;100.00;98986.09;5344805;27;20472;-83
2023/01/16 04:15:52;;;;;;;11.98;2.10;;;;;;;2.64;100.00;98973.06;5346174;27;20031;-83
2023/01/16 04:18:28;;;;;;;9.20;2.03;;;;;;;2.72;100.00;98967.09;5340645;27;20046;-82
2023/01/16 04:21:00;;;;;;;7.22;2.70;;;;;;;2.74;100.00;98959.91;5337932;27;20051;-82
2023/01/16 04:23:31;;;;;;;7.10;1.63;;;;;;;2.76;100.00;98952.69;5344644;27;20048;-83
2023/01/16 04:26:03;;;;;;;9.57;2.15;;;;;;;2.79;100.00;98942.72;5345622;27;20632;-83
2023/01/16 04:28:34;;;;;;;5.90;1.73;;;;;;;2.82;100.00;98931.06;5340164;27;20046;-83
2023/01/16 04:31:05;;;;;;;7.28;1.98;;;;;;;2.83;100.00;98928.28;5343646;27;20026;-82
2023/01/16 04:33:37;;;;;;;7.20;1.48;;;;;;;2.89;100.00;98910.28;5335884;27;20468;-83
2023/01/16 04:36:08;;;;;;;7.05;1.70;;;;;;;2.87;100.00;98899.06;5341480;27;20332;-83
2023/01/16 04:38:39;;;;;;;8.95;2.10;;;;;;;2.90;100.00;98899.59;5342832;27;20030;-83
2023/01/16 04:41:10;;;;;;;7.68;2.63;;;;;;;2.97;100.00;98884.06;5342622;27;20585;-83
2023/01/16 04:43:42;;;;;;;7.65;2.22;;;;;;;2.97;100.00;98871.72;5340357;27;20028;-83
2023/01/16 04:46:13;;;;;;;6.10;1.80;;;;;;;3.03;100.00;98863.28;5338278;27;20054;-84
2023/01/16 04:48:44;;;;;;;9.57;2.15;;;;;;;3.08;100.00;98857.56;5342068;27;20102;-82
2023/01/16 04:51:15;;;;;;;11.90;2.08;;;;;;;3.08;100.00;98844.38;5342417;27;20032;-83
2023/01/16 04:53:47;;;;;;;8.50;1.98;;;;;;;3.10;100.00;98829.25;5337098;27;20495;-82
2023/01/16 04:56:18;;;;;;;5.55;1.58;;;;;;;3.16;100.00;98818.16;5315862;27;20097;-82
2023/01/16 04:58:50;;;;;;;8.95;1.88;;;;;;;3.22;100.00;98812.28;5324263;27;20036;-82
2023/01/16 05:01:22;;;;;;;8.77;1.75;;;;;;;3.24;100.00;98800.78;5336571;27;20103;-82
2023/01/16 05:03:53;;;;;;;6.82;1.90;;;;;;;3.30;100.00;98787.88;5323391;27;20480;-82
2023/01/16 05:06:24;;;;;;;8.25;1.60;;;;;;;3.30;100.00;98781.78;5322701;27;20344;-82
2023/01/16 05:08:56;;;;;;;5.63;1.58;;;;;;;3.35;100.00;98782.16;5341887;27;20098;-83
2023/01/16 05:11:27;;;;;;;7.82;2.10;;;;;;;3.37;100.00;98769.66;5346016;27;20024;-83
2023/01/16 05:13:59;;;;;;;7.38;1.38;;;;;;;3.42;100.00;98767.44;5343307;27;20134;-83
2023/01/16 05:16:30;;;;;;;5.70;1.80;;;;;;;3.45;100.00;98747.84;5340180;27;20035;-83
2023/01/16 05:19:01;;;;;;;7.00;1.95;;;;;;;3.50;100.00;98759.59;5343032;27;20039;-83
2023/01/16 05:21:33;;;;;;;11.50;2.35;;;;;;;3.51;100.00;98742.81;5336179;27;20078;-83
2023/01/16 05:24:04;;;;;;;7.85;1.60;;;;;;;3.54;100.00;98731.13;5346763;27;20492;-82
2023/01/16 05:26:36;;;;;;;3.33;1.52;;;;;;;3.54;100.00;98724.06;5341024;27;20063;-83
2023/01/16 05:29:07;;;;;;;3.78;1.75;;;;;;;3.58;100.00;98714.88;5343748;27;20034;-83
2023/01/16 05:31:38;;;;;;;6.47;1.88;;;;;;;3.58;100.00;98696.41;5347234;27;20032;-82
2023/01/16 05:34:10;;;;;;;7.05;1.50;;;;;;;3.59;100.00;98692.81;5329051;27;20506;-83
2023/01/16 05:36:41;;;;;;;6.65;2.28;;;;;;;3.59;100.00;98684.06;5341942;27;20084;-82
2023/01/16 05:39:12;;;;;;;8.73;1.88;;;;;;;3.62;100.00;98659.22;5342899;27;20023;-82
2023/01/16 05:41:44;;;;;;;4.88;1.58;;;;;;;3.65;100.00;98654.47;5336244;27;20034;-82
2023/01/16 05:44:15;;;;;;;8.40;1.20;;;;;;;3.69;100.00;98645.25;5342676;27;20028;-82
2023/01/16 05:46:46;;;;;;;7.35;1.77;;;;;;;3.71;100.00;98629.28;5342123;27;20410;-84
2023/01/16 05:49:18;;;;;;;7.30;1.48;;;;;;;3.73;100.00;98641.34;5349112;27;20065;-83
2023/01/16 05:51:49;;;;;;;4.80;1.50;;;;;;;3.73;100.00;98620.22;5344024;27;20090;-83
2023/01/16 05:54:20;;;;;;;8.43;1.90;;;;;;;3.77;100.00;98628.69;5350126;27;20020;-81
2023/01/16 05:56:52;;;;;;;6.00;1.83;;;;;;;3.83;100.00;98608.78;5352094;27;20080;-82
2023/01/16 05:59:23;;;;;;;5.97;1.90;;;;;;;3.82;100.00;98602.66;5345523;27;20035;-82
2023/01/16 06:01:56;;;;;;;6.22;1.58;;;;;;;3.82;100.00;98601.84;5313639;27;20121;-82
2023/01/16 06:04:27;;;;;;;5.70;1.45;;;;;;;3.81;100.00;98600.22;5340855;27;20111;-83
2023/01/16 06:06:59;;;;;;;6.65;1.65;;;;;;;3.79;100.00;98598.53;5342520;27;20114;-83
2023/01/16 06:09:30;;;;;;;5.18;1.60;;;;;;;3.79;100.00;98587.19;5339438;27;20035;-82
2023/01/16 06:12:01;;;;;;;3.13;1.30;;;;;;;3.75;100.00;98585.81;5337686;27;20026;-82
2023/01/16 06:14:35;;;;;;;5.22;1.55;;;;;;;3.73;100.00;98578.03;5344121;27;20015;-83
2023/01/16 06:17:07;;;;;;;9.70;1.95;;;;;;;3.68;100.00;98574.22;5338534;27;20024;-83
2023/01/16 06:19:38;;;;;;;8.60;1.67;;;;;;;3.67;100.00;98564.69;5341065;27;20038;-83
2023/01/16 06:22:10;;;;;;;6.82;1.55;;;;;;;3.64;100.00;98564.97;5336921;27;20060;-83
2023/01/16 06:24:41;;;;;;;6.90;1.80;;;;;;;3.60;100.00;98560.00;5341374;27;20051;-83
2023/01/16 06:27:12;;;;;;;10.60;1.80;;;;;;;3.57;100.00;98556.84;5339936;27;20050;-83
2023/01/16 06:29:44;;;;;;;6.38;1.33;;;;;;;3.57;100.00;98546.31;5338205;27;20024;-83
2023/01/16 06:32:18;;;;;;;5.07;1.58;;;;;;;3.57;100.00;98536.56;5335400;27;20394;-84
2023/01/16 06:34:49;;;;;;;5.45;1.42;;;;;;;3.56;100.00;98526.22;5339259;27;20097;-83
2023/01/16 06:37:21;;;;;;;7.45;1.65;;;;;;;3.53;100.00;98513.34;5323261;27;20024;-83
2023/01/16 06:39:52;;;;;;;6.75;1.77;;;;;;;3.56;100.00;98520.94;5341736;27;20054;-83
2023/01/16 06:42:23;;;;;;;6.45;1.50;;;;;;;3.55;100.00;98506.91;5342140;27;20443;-84
2023/01/16 06:44:55;;;;;;;10.70;1.58;;;;;;;3.54;100.00;98493.88;5337615;27;28908;-84
2023/01/16 06:47:27;;;;;;;11.25;1.63;;;;;;;3.52;100.00;98486.13;5336577;27;20173;-84
2023/01/16 06:49:58;;;;;;;9.02;1.90;;;;;;;3.52;100.00;98449.22;5337017;27;20656;-84
2023/01/16 06:52:29;;;;;;;5.78;1.70;;;;;;;3.50;100.00;98438.00;5315384;27;20123;-84
2023/01/16 06:55:01;;;;;;;7.88;1.83;;;;;;;3.50;100.00;98440.66;5335050;27;21814;-84
2023/01/16 06:57:35;;;;;;;6.18;1.80;;;;;;;3.47;100.00;98425.16;5337344;27;20019;-84
2023/01/16 07:00:07;;;;;;;6.22;1.73;;;;;;;3.51;100.00;98423.03;5334141;27;20020;-83
2023/01/16 07:02:39;;;;;;;7.20;1.80;;;;;;;3.48;100.00;98407.53;5333413;27;20081;-83
2023/01/16 07:05:10;;;;;;;5.55;1.67;;;;;;;3.51;100.00;98396.69;5336224;27;20024;-83
2023/01/16 07:07:42;;;;;;;6.78;1.45;;;;;;;3.52;100.00;98395.69;5329791;27;20024;-83
2023/01/16 07:10:13;;;;;;;6.45;1.67;;;;;;;3.52;100.00;98374.59;5317994;27;20031;-82
2023/01/16 07:12:45;;;;;;;6.40;1.35;;;;;;;3.52;100.00;98374.59;5336826;27;20453;-83
2023/01/16 07:24:00;;;;;;;5.95;1.35;;;;;;;3.53;100.00;98328.81;5333841;27;20421;-85
2023/01/16 07:26:34;;;;;;;4.22;1.15;;;;;;;3.54;100.00;98322.53;5342318;27;20028;-84
2023/01/16 07:29:06;;;;;;;6.32;1.83;;;;;;;3.53;100.00;98313.00;5336047;27;20012;-84
2023/01/16 07:31:37;;;;;;;3.88;1.42;;;;;;;3.52;100.00;98306.06;5342239;27;20108;-85
2023/01/16 07:34:35;;;;;;;10.00;1.85;;;;;;;3.51;100.00;98305.25;5319734;27;20071;-84
2023/01/16 07:37:07;;;;;;;7.72;1.88;;;;;;;3.50;100.00;98295.69;5330571;27;20044;-84
2023/01/16 07:39:38;;;;;;;4.82;1.30;;;;;;;3.54;100.00;98298.81;5330628;27;20109;-84
2023/01/16 07:42:09;;;;;;;8.13;1.73;;;;;;;3.54;100.00;98283.84;5337571;27;20028;-84
2023/01/16 07:44:41;;;;;;;7.28;1.50;;;;;;;3.55;100.00;98293.41;5314975;27;20027;-84
2023/01/16 07:47:12;;;;;;;2.05;1.20;;;;;;;3.53;100.00;98271.66;5317071;27;20032;-83
2023/01/16 07:49:44;;;;;;;7.45;1.70;;;;;;;3.53;100.00;98258.47;5337675;27;20029;-83
2023/01/16 07:52:18;;;;;;;7.43;1.85;;;;;;;3.54;100.00;98283.00;5339418;27;20119;-83
2023/01/16 07:54:49;;;;;;;5.78;1.67;;;;;;;3.56;100.00;98258.16;5341575;27;20179;-84
2023/01/16 07:57:21;;;;;;;5.10;1.80;;;;;;;3.54;100.00;98246.97;5341172;27;20028;-84
2023/01/16 07:59:53;;;;;;;4.50;1.35;;;;;;;3.56;100.00;98267.88;5317980;27;20024;-84
2023/01/16 08:02:24;;;;;;;6.32;1.63;;;;;;;3.53;100.00;98226.84;5307090;27;20035;-83
2023/01/16 08:04:56;;;;;;;5.30;2.08;;;;;;;3.56;100.00;98218.63;5339647;27;20024;-83
2023/01/16 08:07:27;;;;;;;4.38;1.52;;;;;;;3.55;100.00;98221.41;5341685;27;20020;-84
2023/01/16 08:09:58;;;;;;;3.78;1.52;;;;;;;3.57;100.00;98207.06;5337537;27;20476;-84
2023/01/16 08:12:30;;;;;;;6.38;1.80;;;;;;;3.57;100.00;98187.81;5340291;27;20055;-84
2023/01/16 08:15:01;;;;;;;6.70;1.70;;;;;;;3.56;100.00;98192.25;5341451;27;20425;-84
2023/01/16 08:17:32;;;;;;;5.57;1.60;;;;;;;3.55;100.00;98190.59;5339429;27;20472;-84
2023/01/16 08:20:04;;;;;;;7.13;2.47;;;;;;;3.59;100.00;98193.72;5348600;27;20106;-83
2023/01/16 08:22:44;;;;;;;5.75;1.60;;;;;;;3.62;100.00;98176.78;5335835;27;20052;-83
2023/01/16 08:25:18;;;;;;;4.78;1.58;;;;;;;3.59;100.00;98178.75;5347328;27;20036;-82
2023/01/16 08:27:49;;;;;;;4.25;1.60;;;;;;;3.61;100.00;98170.66;5356939;27;20007;-82
2023/01/16 08:30:20;;;;;;;3.42;1.75;;;;;;;3.62;100.00;98153.06;5347910;27;20030;-83
2023/01/16 08:33:01;;;;;;;10.23;2.15;;;;;;;3.69;100.00;98154.88;5347511;27;20099;-83
2023/01/16 08:35:33;;;;;;;5.75;1.40;;;;;;;3.68;100.00;98149.75;5334024;27;20032;-83
2023/01/16 08:38:04;;;;;;;6.97;1.70;;;;;;;3.69;100.00;98146.97;5340132;27;20348;-83
2023/01/16 08:40:35;;;;;;;5.82;1.80;;;;;;;3.70;100.00;98135.44;5347194;27;20046;-83
2023/01/16 08:51:45;;;;;;;4.88;2.03;;;;;;;3.76;100.00;98131.31;5335388;27;20537;-83
2023/01/16 08:54:17;;;;;;;4.40;1.90;;;;;;;3.79;100.00;98137.06;5343740;27;20047;-84
2023/01/16 08:56:48;;;;;;;4.63;1.42;;;;;;;3.83;100.00;98134.94;5350583;27;20020;-83
2023/01/16 08:59:19;;;;;;;2.95;1.70;;;;;;;3.80;100.00;98119.44;5345378;27;20482;-83
2023/01/16 09:01:51;;;;;;;5.43;1.83;;;;;;;3.84;100.00;98118.13;5340550;27;20107;-83
2023/01/16 09:04:22;;;;;;;6.55;1.98;;;;;;;3.80;100.00;98124.72;5313133;27;20115;-83
2023/01/16 09:06:53;;;;;;;3.70;1.42;;;;;;;3.83;100.00;98115.66;5347088;27;20114;-84
2023/01/16 09:09:25;;;;;;;2.55;1.23;;;;;;;3.79;100.00;98117.81;5318622;28;20028;-83
2023/01/16 09:14:46;;;;;;;2.63;1.20;;;;;;;3.76;100.00;98111.03;5354697;27;20031;-84
2023/01/16 09:17:18;;;;;;;2.78;0.95;;;;;;;3.77;100.00;98119.78;5335722;27;20034;-84
2023/01/16 09:19:49;;;;;;;2.85;1.10;;;;;;;3.75;100.00;98105.91;5327410;28;20008;-84
2023/01/16 09:22:22;;;;;;;1.85;1.30;;;;;;;3.75;100.00;98108.56;5328334;27;20042;-83
2023/01/16 09:24:53;;;;;;;1.02;0.93;;;;;;;3.73;100.00;98103.44;5348865;27;20019;-83
2023/01/16 09:27:24;;;;;;;4.65;1.00;;;;;;;3.76;100.00;98097.84;5365894;27;20023;-83
2023/01/16 09:29:56;;;;;;;0.70;0.70;;;;;;;3.78;100.00;98095.03;5370208;27;20034;-83
2023/01/16 09:32:28;;;;;;;3.10;0.90;;;;;;;3.80;100.00;98098.34;5369840;27;20027;-83
2023/01/16 09:34:59;;;;;;;1.52;0.80;;;;;;;3.81;100.00;98091.28;5358222;27;20464;-83
2023/01/16 09:37:30;;;;;;;0.80;0.70;;;;;;;3.84;100.00;98098.81;5353762;27;20026;-83
2023/01/16 09:40:02;;;;;;;0.90;0.65;;;;;;;3.83;100.00;98100.66;5363954;27;20035;-83
2023/01/16 09:45:46;;;;;;;1.10;0.77;;;;;;;3.83;100.00;98081.38;5360318;27;20043;-83
2023/01/16 09:48:26;;;;;;;1.27;0.90;;;;;;;3.88;100.00;98090.44;5364735;27;20443;-83
2023/01/16 09:51:05;;;;;;;1.40;1.00;;;;;;;3.85;100.00;98080.22;5363611;27;20023;-83
2023/01/16 09:59:40;;;;;;;1.15;0.80;;;;;;;3.97;100.00;98060.41;5364264;27;20028;-82
2023/01/16 10:02:26;;;;;;;0.60;0.60;;;;;;;4.00;100.00;98058.41;5360273;27;20027;-82
2023/01/16 10:04:57;;;;;;;0.63;0.57;;;;;;;4.04;100.00;98067.66;5357707;27;20069;-82
2023/01/16 10:07:38;;;;;;;1.80;0.80;;;;;;;4.11;100.00;98052.81;5364309;27;21742;-82
2023/01/16 10:10:51;;;;;;;0.57;0.57;;;;;;;4.22;100.00;98048.97;5366868;27;20446;-82
2023/01/16 10:13:31;;;;;;;1.58;0.60;;;;;;;4.45;100.00;98041.97;5367015;27;20041;-82
2023/01/16 10:16:24;;;;;;;1.73;1.00;;;;;;;4.68;100.00;98035.91;5348235;27;20024;-82
2023/01/16 10:19:12;;;;;;;3.53;1.10;;;;;;;4.99;100.00;98027.13;5368081;27;20026;-82
2023/01/16 10:22:12;;;;;;;1.77;0.82;;;;;;;5.09;100.00;98025.91;5357786;27;20074;-82
2023/01/16 10:24:52;;;;;;;1.10;0.57;;;;;;;5.05;100.00;98019.34;5331258;27;20031;-82
2023/01/16 10:27:54;;;;;;;5.57;0.70;;;;;;;5.20;100.00;98013.28;5325174;27;20039;-82
2023/01/16 10:30:30;;;;;;;0.60;0.45;;;;;;;4.92;100.00;98011.97;5331718;27;20037;-82
2023/01/16 10:33:13;;;;;;;0.90;0.60;;;;;;;4.96;100.00;98009.00;5336158;27;20107;-82
2023/01/16 10:35:49;;;;;;;0.52;0.52;;;;;;;4.96;100.00;97987.84;5338920;27;20032;-82
2023/01/16 10:50:09;;;;;;;0.90;0.50;;;;;;;4.87;100.00;97973.88;5343489;27;20130;-82
2023/01/16 10:52:41;;;;;;;1.40;0.50;;;;;;;4.74;100.00;97975.28;5322289;27;20040;-82
2023/01/16 10:55:13;;;;;;;1.50;0.70;;;;;;;4.72;100.00;97958.81;5348480;27;20028;-82
2023/01/16 10:57:52;;;;;;;0.93;0.57;;;;;;;4.78;100.00;97957.28;5346396;27;20008;-81
2023/01/16 11:00:35;;;;;;;1.50;0.50;;;;;;;4.79;100.00;97944.91;5364682;27;20025;-84
2023/01/16 11:03:31;;;;;;;0.90;0.70;;;;;;;4.73;100.00;97931.41;5342801;28;20042;-81
2023/01/16 11:06:21;;;;;;;0.65;0.65;;;;;;;4.77;100.00;97939.81;5337909;28;20075;-82
2023/01/16 11:08:55;;;;;;;2.92;0.80;;;;;;;4.69;100.00;97930.09;5329741;27;20035;-82
2023/01/16 11:20:18;;;;;;;1.50;0.75;;;;;;;4.87;100.00;97898.13;5345312;27;20036;-82
2023/01/16 11:23:04;;;;;;;1.30;0.50;;;;;;;4.86;100.00;97888.56;5340463;27;20032;-82
2023/01/16 11:25:35;;;;;;;0.90;0.55;;;;;;;4.95;100.00;97872.66;5346764;27;20012;-82
2023/01/16 11:28:12;;;;;;;1.83;0.77;;;;;;;4.99;100.00;97874.72;5346135;27;20015;-82
2023/01/16 11:30:46;;;;;;;1.38;0.77;;;;;;;4.92;100.00;97871.16;5345759;27;20024;-83
2023/01/16 11:33:22;;;;;;;0.65;0.60;;;;;;;4.97;100.00;97870.66;5344511;27;20024;-82
2023/01/16 11:35:59;;;;;;;1.40;0.63;;;;;;;4.97;100.00;97866.16;5345204;27;20027;-83
2023/01/16 11:38:35;;;;;;;1.58;0.68;;;;;;;4.95;100.00;97854.16;5345412;27;20566;-82
2023/01/16 11:41:10;;;;;;;1.10;0.57;;;;;;;4.96;100.00;97853.97;5332507;27;20035;-83
2023/01/16 11:46:37;;;;;;;1.05;0.70;;;;;;;4.87;100.00;97834.75;5350308;27;20024;-83
2023/01/16 11:49:18;;;;;;;0.98;0.65;;;;;;;4.78;100.00;97835.81;5347474;27;20042;-83
2023/01/16 11:51:53;;;;;;;1.83;0.68;;;;;;;4.79;100.00;97834.00;5343397;27;20019;-83
2023/01/16 11:54:28;;;;;;;1.38;0.70;;;;;;;4.78;100.00;97832.34;5345428;27;20023;-84
2023/01/16 11:57:22;;;;;;;1.45;0.80;;;;;;;4.76;100.00;97814.03;5326601;27;20498;-82
2023/01/16 12:00:24;;;;;;;1.70;0.98;;;;;;;4.82;100.00;97812.50;5344590;27;20039;-83
2023/01/16 12:02:58;;;;;;;2.50;0.90;;;;;;;4.83;100.00;97816.78;5324583;28;20035;-82
2023/01/16 12:05:54;;;;;;;6.75;0.98;;;;;;;4.82;100.00;97805.41;5332763;27;20125;-83
2023/01/16 12:08:28;;;;;;;1.77;0.90;;;;;;;4.87;100.00;97804.84;5347000;27;20116;-82
2023/01/16 12:11:14;;;;;;;1.98;0.80;;;;;;;4.99;100.00;97786.75;5346331;27;20023;-82
2023/01/16 12:17:29;;;;;;;1.63;0.90;;;;;;;5.20;100.00;97784.19;5339876;27;20407;-83
2023/01/16 12:20:19;;;;;;;3.50;1.50;;;;;;;5.21;100.00;97777.91;5328497;27;20110;-82
2023/01/16 12:23:18;;;;;;;1.92;0.80;;;;;;;5.19;100.00;97773.81;5342680;27;20218;-84
2023/01/16 12:26:06;;;;;;;1.45;0.70;;;;;;;5.18;100.00;97790.69;5328494;27;20032;-82
2023/01/16 12:28:43;;;;;;;0.63;0.47;;;;;;;5.18;100.00;97775.63;5349082;27;20023;-82
2023/01/16 12:31:34;;;;;;;0.50;0.50;;;;;;;5.24;100.00;97761.69;5336911;27;20028;-83
2023/01/16 12:34:45;;;;;;;1.27;0.45;;;;;;;5.28;100.00;97756.88;5331808;28;20107;-83
2023/01/16 12:37:35;;;;;;;0.40;0.40;;;;;;;5.36;100.00;97755.94;5335114;27;20444;-82
2023/01/16 12:40:26;;;;;;;1.08;0.40;;;;;;;5.41;100.00;97745.63;5334275;27;20027;-83
2023/01/16 12:43:32;;;;;;;0.47;0.43;;;;;;;5.43;100.00;97741.78;5346126;27;20107;-82
2023/01/16 12:46:15;;;;;;;1.02;0.47;;;;;;;5.53;100.00;97736.22;5347503;27;20110;-82
2023/01/16 12:49:01;;;;;;;0.65;0.40;;;;;;;5.53;100.00;97727.47;5348024;27;20429;-83
2023/01/16 12:51:32;;;;;;;1.05;0.60;;;;;;;5.51;100.00;97716.28;5351464;27;20054;-83
2023/01/16 12:54:41;;;;;;;0.88;0.40;;;;;;;5.49;100.00;97717.25;5359637;27;20117;-84
2023/01/16 12:57:30;;;;;;;0.30;0.30;;;;;;;5.48;100.00;97712.16;5357622;27;20388;-82
2023/01/16 13:00:20;;;;;;;0.90;0.47;;;;;;;5.47;100.00;97695.50;5348993;27;20419;-83
2023/01/16 13:03:01;;;;;;;1.55;0.47;;;;;;;5.47;100.00;97692.03;5317796;28;20423;-83
2023/01/16 13:05:35;;;;;;;0.73;0.65;;;;;;;5.38;100.00;97685.19;5333248;27;20030;-84
2023/01/16 13:08:22;;;;;;;0.80;0.55;;;;;;;5.41;100.00;97684.84;5349030;27;20076;-83
2023/01/16 13:13:57;;;;;;;0.85;0.47;;;;;;;5.26;100.00;97672.47;5348928;27;20028;-83
2023/01/16 13:16:44;;;;;;;0.50;0.50;;;;;;;5.32;100.00;97686.78;5347269;27;20043;-83
2023/01/16 13:19:23;;;;;;;2.08;0.60;;;;;;;5.35;100.00;97677.63;5347527;27;20042;-83
2023/01/16 13:21:55;;;;;;;0.60;0.50;;;;;;;5.37;100.00;97683.59;5337892;27;20043;-81